Timeline UpdatesTrip UpdatesNews PostsPvt PostsTravel TipsAdmin PostsConv PostsFollowed PostsChat RequestsBlog PostsPNR Posts

Disclaimer
Search
 
 
Thu Sep 18, 2014 11:13:23 ISTHomeTrainsΣChainsAtlasPNRForumGalleryNewsFAQTripsMembersLoginFeedback
No Recent News for this Train
Other Trains in the News **new
Latest...
Detached at Erode Junction to run as separate train till Tirunelveli.
Fri Mar 25, 2011 (08:02PM)
⇐ Return Journey: Train# 16787

16688-Slip/Navyug Express Slip

Time-Table HAS CHANGED.
Sep 04 (10:13PM)
Change Departure Station:
Change Arrival Station:
Post a Train Travel TipPost a Train Travel Tip **new
Post a Comment/Question/Picture/VideoPost a Comment/Question/Picture/Video
Pantry/Catering
✓ Pantry Car Avbl
✓ Catering Avbl
PC will available till ED/Erode Juntion
Loco/Rake Reversals
ED/Erode Junction (4);
RSA - Rake Sharing
NO RSA
Rake/Coach Composition
Coach postions:; JAT-ED ==>ENG-SRD-UR-UR-A1-B2-B1-S1-S2-S3-S4-S5-PC-SRD-S6-S7-S8-S9-A2-UR-SLR ; Entry# 962626; Slip coaches from ED to TEN==>; S6-S7-S8-S9-A2-UR-SLR-ENG
Loco
WDM3A-TKD Shed (JAT-NDLS) WAP4-ED Shed (NDLS-ED)
News    PNR    Forum    Time-Table    Availability    Fare Chart    Map    Arr/Dep History    Trips    Gallery    ΣChains    X/O    Timeline    
Travel Time: 4h 33m    9 halts    Distance: 251 km    Avg Speed: 55 km/hr
Type: Mail/Express
Zone: SR/Southern
Departs @ 23:45
Platform# 2
    T  
Jammu Tawi/JAT 
Arrives @ 04:18 +1 night
Platform# 1
     F 
Phillaur Junction/PHR 

9 halts. 46 intermediate Stations between Jammu Tawi and Phillaur Junction

Show ALL intermediate Stations  Show Old Time-Table

#CodeStation NameX/OArrivesAvgDepartsAvgHaltPFDay#KmSpeedElevZoneAddress
1JATJammu Tawi (3)»  -23:45-210.065337mNRJammu 180002, Jammu and Kashmir
2SMBXSamba (2)  00:15-00:17-2m1232.764365mNRDist. Samba, Jammu and Kashmir
3KTHUKathua (2)  00:58-01:00-2m2276.349396mNRdistt. kathua, Jammu and Kashmir
4MDPBMadhopur Punjab (2)  01:10-01:12-2m1284.456357mNRMadhopur, Punjab
5PTKCPathankot Cantt (3)  01:28-01:33-5m1299.457328mNRPathankot By Pass Ph:0186-2251594, Punjab
6MEXMukerian (3)  02:15-02:17-2m12139.353257mNRMukerian distt. hosiharpur, Punjab
7DZADasuya (2)X  02:34-02:36-2m12154.358251mNRDasuya distt. hoshiarpur, Punjab
8TDOTanda Urmar (3)  02:52-02:54-2m22169.762239mNRUrmar Tanda, Punjab
9JRCJalandhar Cantt. Junction (3)X  03:35-03:40-5m32211.954239mNRNear Rama Mandi, Punjab
10PGWPhagwara Junction (3)  03:58-04:00-2m12228.275245mNRPhagwara, Punjab
11PHRPhillaur Junction (3)•X  04:18-04:20-2m12250.820246mNRPhillaur, Punjab
12LDHLudhiana Junction (7)X  05:00-05:15-15m52263.963246mNRLudhiana 141001, Punjab
13QRPKila Raipur (1)  05:32-05:34-2m12281.651262mNRDelhon Pakhowal Rd, Punjab
14AHHAhmadgarh (1)  05:43-05:45-2m12289.343256mNRAhmedgarh, Punjab
15METMalerkotla (2)  06:13-06:15-2m--2309.150248mNRMalerkotla., Punjab
16DUIDhuri Junction (4)X  06:35-07:00-25m--2326.064248mNRDhuri, Punjab
17SAGSangrur (2)X  07:15-07:17-2m12342.035239mNRSangrur, Punjab
18SFMSunam (1)  07:39-07:41-2m12354.871235mNRSunam, Punjab
19LHALehra Gaga (1)  07:59-08:01-2m12376.119227mNRSangrur, Punjab
20JHLJakhal Junction  08:55-09:00-5m--2393.067225mNRJakhal, Haryana
21TUNTohana (2)  09:11-09:13-2m--2405.261232mNRTohana, Haryana
22NRWNarwana Junction (4)X  09:38-09:40-2m--2430.765235mNRWay to Narwana, Haryana
23UCAUchana  09:54-09:56-2m--2445.958225mNRDistrict Jind, Haryana
24BZOBarsola  10:06-10:08-2m--2455.534224mNRDistrict Jind, Haryana
25JINDJind Junction (3)X  10:24-10:27-3m--2464.673222mNR126102., Haryana
26JNAJulana  10:50 10:48-10:52 10:50-2m--2490.367226mNRJulana, Haryana
27ROKRohtak Junction (3)  11:45 11:18-11:47 11:20-2m--2521.773220mNRRohtak, Haryana
28BGZBahadurgarh  12:19 11:53-12:21 11:55-2m--2562.029220mNRBahadurgarh, Haryana
29SSBShakur Basti  12:56 12:36-12:58 12:38-2m--2581.913216mNRPitampura, Delhi NCT
30NDLSNew Delhi (16)X13:35 13:30-14:30 14:15-55 45m92592.816215mNRNew Delhi, Delhi NCT
31NZMDelhi Hazrat Nizamuddin (7)X  14:45 14:43-14:55 14:45-10 2m42600.235209mNRNew Delhi 110013, Delhi NCT
32FDBFaridabad (4)  15:38 15:21-15:40 15:23-2m32620.945206mNRold Faridabad, Haryana
33AGCAgra Cantt. (6)  19:05-19:10-5m12787.890174mNCRAgra, Uttar Pradesh
34DHODholpur Junction (3)  19:45-19:47-2m32840.462177mNCRDholpur, Rajasthan
35GWLGwalior Junction (4)  20:50-20:55-5m12905.862214mNCRGwalior, Madhya Pradesh
36JHSJhansi Junction (7)X  22:30-22:40-10m--21003.567259mNCRJhansi, Uttar Pradesh
37BPLBhopal Junction (6)  02:55 03:03-03:00 03:05-5 2m131295.339497mWCRBhopal, Madhya Pradesh
38ETItarsi Junction (7)X  05:25-05:30-5m--31387.058329mWCRItarsi 461111, Madhya Pradesh
39NGPNagpur Junction (8)  10:35-10:45-10m231684.274314mCRNagpur 440001, Maharashtra
40SEGMSewagram Junction (5)  11:47-11:49-2m--31760.466279mCRWardha, Maharashtra
41CDChandrapur Maharashtra (3)  13:36-13:38-2m131879.016194mCRChandrapur 442401, Maharashtra
42BPQBalharshah Junction (5)  14:30-14:40-10m331892.874188mCRBallarpur. Ph : 07172 - 240341, Maharashtra
43RDMRamagundam (3)  16:35-16:37-2m232034.650170mSCRKarimnagar Dist. Ph : 08728 - 255237, Telangana
44WLWarangal (3)X  18:38-18:43-5m132135.767271mSCRWarangal., Telangana
45KMTKhammam (2)X  20:19-20:20-1m132243.331118mSCRKhammam 507001, Telangana
46BZAVijayawada Junction (10)X  23:35-23:45-10m732343.76224mSCRVijayawada 520001, Andhra Pradesh
47GDRGudur Junction (3)  04:28-04:30-2m142637.27119mSCRGudur, Andhra Pradesh
48RURenigunta Junction (5)X  05:40-05:50-10m242720.640113mSCRChittoor District, Andhra Pradesh
49TPTYTirupati Main (5)  06:05-06:10-5m242730.455150mSCRChittoor Distt, Andhra Pradesh
50CTOChittoor (3)  07:28-07:30-2m--42802.324305mSCR517001., Andhra Pradesh
51KPDKatpadi Junction (5)X  08:55 08:52-08:57-2 5m342835.471213mSRVellore 632007, Tamil Nadu
52JTJJolarpettai Junction (5)X  10:08-10:10-2m--42919.380405mSRJolarpettai, Tamil Nadu
53SASalem Junction (6)  11:40-11:45-5m--43039.553283mSRSalem, Tamil Nadu
54EDErode Junction (4)↵¶12:55-13:40-45m343100.858175mSRErode ph.no: 0424-2256111, Tamil Nadu
55KRRKarur Junction (5)  14:47-14:50-3m--43165.840121mSRKarur Junction ph.no . 04324-274106, Tamil Nadu
56TPJTiruchchirappalli Junction (8)  16:45-16:50-5m143242.18185mSRTiruchchirapalli ph.no.0431-2413363, Tamil Nadu
57DGDindigul Junction (6)  18:00-18:05-5m--43336.470287mSRDindigul ph.no.0451-2322045, Tamil Nadu
58KQNKodaikanal Road (4)  18:23 18:24-18:25-2 1m--43358.660242mSRDIndigal Dist, Tamil Nadu
59MDUMadurai Junction (6)  19:05-19:10-5m--43398.874139mSRMadurai 625001, Tamil Nadu
60VPTVirudunagar Junction (4)  19:45-19:47-2m--43442.039108mSRPh No: 04562-243747, Tamil Nadu
61SRTSatur (2)X  20:29-20:31-2m--43469.34665mSRPh No:04562 - 260243, Tamil Nadu
62CVPKovilpattiX  20:59-21:01-2m--43490.71890mSRKovilpatti, Tamil Nadu
63MEJVanchi Maniyachchi Junction (3)  22:59-23:00-1m--43526.91970mSRThoothukudi, Tamil Nadu
64TENTirunelveli Junction (5)  00:30----53555.3-45mSRTirunelveli-627001, Tamil Nadu
Scroll to Top
Scroll to Bottom